sensor_id;sensor_type;location;lat;lon;timestamp;temperature;humidity
43414;DHT22;73638;49.676;8.606;2024-01-15T00:02:33;0.9003;60.4685
43414;DHT22;73638;49.676;8.606;2024-01-15T00:07:39;0.9403;60.5783
43414;DHT22;73638;49.676;8.606;2024-01-15T00:12:45;1.0258;60.7385
43414;DHT22;73638;49.676;8.606;2024-01-15T00:17:52;0.9403;60.5905
43414;DHT22;73638;49.676;8.606;2024-01-15T00:22:58;1.1433;61.181
43414;DHT22;73638;49.676;8.606;2024-01-15T00:28:05;1.2688;61.709
43414;DHT22;73638;49.676;8.606;2024-01-15T00:33:12;1.5358;61.5167
43414;DHT22;73638;49.676;8.606;2024-01-15T00:38:18;1.4851;61.8357
43414;DHT22;73638;49.676;8.606;2024-01-15T00:43:24;1.5358;62.0325
43414;DHT22;73638;49.676;8.606;2024-01-15T00:48:31;1.6266;62.327
43414;DHT22;73638;49.676;8.606;2024-01-15T00:53:37;1.5972;62.4994
43414;DHT22;73638;49.676;8.606;2024-01-15T00:58:43;1.6052;62.7695
43414;DHT22;73638;49.676;8.606;2024-01-15T01:03:50;1.7361;62.4628
43414;DHT22;73638;49.676;8.606;2024-01-15T01:08:56;1.2634;61.9913
43414;DHT22;73638;49.676;8.606;2024-01-15T01:14:02;1.1299;62.1271
43414;DHT22;73638;49.676;8.606;2024-01-15T01:19:09;1.0098;62.3606
43414;DHT22;73638;49.676;8.606;2024-01-15T01:24:15;0.9751;62.3362
43414;DHT22;73638;49.676;8.606;2024-01-15T01:29:21;0.935;62.1515
43414;DHT22;73638;49.676;8.606;2024-01-15T01:34:29;1.0098;62.324
43414;DHT22;73638;49.676;8.606;2024-01-15T01:39:34;0.7321;62.5315
43414;DHT22;73638;49.676;8.606;2024-01-15T01:44:40;0.935;62.8641
43414;DHT22;73638;49.676;8.606;2024-01-15T01:49:47;0.9911;62.7527
43414;DHT22;73638;49.676;8.606;2024-01-15T01:54:53;0.9003;62.9618
43414;DHT22;73638;49.676;8.606;2024-01-15T02:00:00;1.1299;63.3555
43414;DHT22;73638;49.676;8.606;2024-01-15T02:05:07;1.3115;63.5157
43414;DHT22;73638;49.676;8.606;2024-01-15T02:10:13;1.4931;63.1876
43414;DHT22;73638;49.676;8.606;2024-01-15T02:15:19;1.5972;62.9175
43414;DHT22;73638;49.676;8.606;2024-01-15T02:20:25;1.6186;62.8061
43414;DHT22;73638;49.676;8.606;2024-01-15T02:25:32;1.8616;62.7573
43414;DHT22;73638;49.676;8.606;2024-01-15T02:30:39;1.883;62.8672
43414;DHT22;73638;49.676;8.606;2024-01-15T02:35:44;1.8215;62.6581
43414;DHT22;73638;49.676;8.606;2024-01-15T02:40:51;1.7922;62.5849
43414;DHT22;73638;49.676;8.606;2024-01-15T02:45:58;1.8082;62.2538
43414;DHT22;73638;49.676;8.606;2024-01-15T02:51:04;1.5492;61.2818
43414;DHT22;73638;49.676;8.606;2024-01-15T02:56:10;1.186;61.8814
43414;DHT22;73638;49.676;8.606;2024-01-15T03:01:18;1.2634;62.5315
43414;DHT22;73638;49.676;8.606;2024-01-15T03:06:22;1.1433;62.0401
43414;DHT22;73638;49.676;8.606;2024-01-15T03:11:28;1.1219;62.6307
43414;DHT22;73638;49.676;8.606;2024-01-15T03:16:35;1.2207;62.6795
43414;DHT22;73638;49.676;8.606;2024-01-15T03:21:41;1.2341;62.8763
43414;DHT22;73638;49.676;8.606;2024-01-15T03:26:50;1.2074;62.2126
43414;DHT22;73638;49.676;8.606;2024-01-15T03:31:56;1.2688;62.6062
43414;DHT22;73638;49.676;8.606;2024-01-15T03:37:03;1.4504;62.7939
43414;DHT22;73638;49.676;8.606;2024-01-15T03:42:09;1.6667;62.8794
43414;DHT22;73638;49.676;8.606;2024-01-15T03:47:16;1.7788;62.8916
43414;DHT22;73638;49.676;8.606;2024-01-15T03:52:22;1.9524;62.8672
43414;DHT22;73638;49.676;8.606;2024-01-15T03:57:29;1.9257;63.0152
43414;DHT22;73638;49.676;8.606;2024-01-15T04:02:35;2.2248;62.6841
43414;DHT22;73638;49.676;8.606;2024-01-15T04:07:42;1.8563;61.2085
43414;DHT22;73638;49.676;8.606;2024-01-15T04:12:48;1.64;61.2818
43414;DHT22;73638;49.676;8.606;2024-01-15T04:17:54;1.4637;61.4298
43414;DHT22;73638;49.676;8.606;2024-01-15T04:23:01;1.4931;61.3687
43414;DHT22;73638;49.676;8.606;2024-01-15T04:28:07;1.3596;61.9913
43414;DHT22;73638;49.676;8.606;2024-01-15T04:33:13;1.1513;61.648
43414;DHT22;73638;49.676;8.606;2024-01-15T04:38:19;1.0044;61.7212
43414;DHT22;73638;49.676;8.606;2024-01-15T04:43:26;1.0445;61.6098
43414;DHT22;73638;49.676;8.606;2024-01-15T04:48:33;0.927;62.8397
43414;DHT22;73638;49.676;8.606;2024-01-15T04:53:39;1.1219;63.183
43414;DHT22;73638;49.676;8.606;2024-01-15T04:58:45;1.2688;63.4653
43414;DHT22;73638;49.676;8.606;2024-01-15T05:03:52;1.7308;63.4089
43414;DHT22;73638;49.676;8.606;2024-01-15T05:08:59;1.8563;63.4333
43414;DHT22;73638;49.676;8.606;2024-01-15T05:14:05;2.1073;63.1006
43414;DHT22;73638;49.676;8.606;2024-01-15T05:19:12;2.0645;63.0396
43414;DHT22;73638;49.676;8.606;2024-01-15T05:24:18;2.0645;62.4994
43414;DHT22;73638;49.676;8.606;2024-01-15T05:29:27;2.0298;61.9959
43414;DHT22;73638;49.676;8.606;2024-01-15T05:34:33;1.696;61.4176
43414;DHT22;73638;49.676;8.606;2024-01-15T05:39:39;1.7441;62.4369
43414;DHT22;73638;49.676;8.606;2024-01-15T05:44:45;1.899;62.7939
43414;DHT22;73638;49.676;8.606;2024-01-15T05:49:52;2.0806;63.0518
43414;DHT22;73638;49.676;8.606;2024-01-15T05:54:59;2.134;62.9664
43414;DHT22;73638;49.676;8.606;2024-01-15T06:00:06;2.3236;63.0396
43414;DHT22;73638;49.676;8.606;2024-01-15T06:05:12;2.3316;62.7939
43414;DHT22;73638;49.676;8.606;2024-01-15T06:10:18;2.3529;62.7817
43414;DHT22;73638;49.676;8.606;2024-01-15T06:15:25;2.134;62.0691
43414;DHT22;73638;49.676;8.606;2024-01-15T06:20:31;2.2328;62.6459
43414;DHT22;73638;49.676;8.606;2024-01-15T06:25:38;2.1767;63.0152
43414;DHT22;73638;49.676;8.606;2024-01-15T06:30:44;2.0085;62.2538
43414;DHT22;73638;49.676;8.606;2024-01-15T06:35:51;2.0432;62.1302
43414;DHT22;73638;49.676;8.606;2024-01-15T06:40:57;1.947;62.118
43414;DHT22;73638;49.676;8.606;2024-01-15T06:46:07;1.8349;62.2538
43414;DHT22;73638;49.676;8.606;2024-01-15T06:51:09;1.6052;62.3636
43414;DHT22;73638;49.676;8.606;2024-01-15T06:56:16;1.5412;62.5727
43414;DHT22;73638;49.676;8.606;2024-01-15T07:01:23;1.7174;63.0396
43414;DHT22;73638;49.676;8.606;2024-01-15T07:06:29;1.632;62.9175
43414;DHT22;73638;49.676;8.606;2024-01-15T07:11:36;1.5892;62.7939
43414;DHT22;73638;49.676;8.606;2024-01-15T07:16:44;1.6453;62.8183
43414;DHT22;73638;49.676;8.606;2024-01-15T07:21:48;1.5839;63.5431
43414;DHT22;73638;49.676;8.606;2024-01-15T07:26:54;1.7575;63.0396
43414;DHT22;73638;49.676;8.606;2024-01-15T07:32:01;1.7014;62.9786
43414;DHT22;73638;49.676;8.606;2024-01-15T07:37:07;1.7174;63.6301
43414;DHT22;73638;49.676;8.606;2024-01-15T07:42:13;1.7308;63.151
43414;DHT22;73638;49.676;8.606;2024-01-15T07:47:20;1.64;63.0274
43414;DHT22;73638;49.676;8.606;2024-01-15T07:52:26;1.696;62.9175
43414;DHT22;73638;49.676;8.606;2024-01-15T07:57:33;1.7014;63.3844
43414;DHT22;73638;49.676;8.606;2024-01-15T08:02:39;1.9337;64.097
43414;DHT22;73638;49.676;8.606;2024-01-15T08:07:46;2.3022;64.3183
43414;DHT22;73638;49.676;8.606;2024-01-15T08:12:52;2.5132;64.2191
43414;DHT22;73638;49.676;8.606;2024-01-15T08:17:59;2.5746;64.0711
43414;DHT22;73638;49.676;8.606;2024-01-15T08:23:05;2.7161;64.1459
43414;DHT22;73638;49.676;8.606;2024-01-15T08:28:12;2.7989;63.5798
43414;DHT22;73638;49.676;8.606;2024-01-15T08:33:23;3.0499;63.6652
43414;DHT22;73638;49.676;8.606;2024-01-15T08:38:25;2.9725;63.5431
43414;DHT22;73638;49.676;8.606;2024-01-15T08:43:31;3.0579;63.3707
43414;DHT22;73638;49.676;8.606;2024-01-15T08:48:38;3.2181;63.2593
43414;DHT22;73638;49.676;8.606;2024-01-15T08:53:44;3.2181;63.4806
43414;DHT22;73638;49.676;8.606;2024-01-15T08:58:51;3.3436;62.6703
43414;DHT22;73638;49.676;8.606;2024-01-15T09:03:57;3.0793;62.7314
43414;DHT22;73638;49.676;8.606;2024-01-15T09:09:04;3.1701;63.0884
43414;DHT22;73638;49.676;8.606;2024-01-15T09:14:11;3.1834;62.1912
43414;DHT22;73638;49.676;8.606;2024-01-15T09:19:17;3.1193;63.0014
43414;DHT22;73638;49.676;8.606;2024-01-15T09:24:29;3.2448;63.1861
43414;DHT22;73638;49.676;8.606;2024-01-15T09:29:30;3.2448;63.0259
43414;DHT22;73638;49.676;8.606;2024-01-15T09:34:37;3.2742;63.2105
43414;DHT22;73638;49.676;8.606;2024-01-15T09:39:43;3.2048;63.3951
43414;DHT22;73638;49.676;8.606;2024-01-15T09:44:49;2.9377;62.8183
43414;DHT22;73638;49.676;8.606;2024-01-15T09:49:55;2.9591;63.2227
43414;DHT22;73638;49.676;8.606;2024-01-15T09:55:03;2.9164;63.4806
43414;DHT22;73638;49.676;8.606;2024-01-15T10:00:09;2.9591;63.6652
43414;DHT22;73638;49.676;8.606;2024-01-15T10:05:15;3.1407;63.8987
43414;DHT22;73638;49.676;8.606;2024-01-15T10:10:22;3.3436;64.329
43414;DHT22;73638;49.676;8.606;2024-01-15T10:15:28;3.5039;64.2313
43414;DHT22;73638;49.676;8.606;2024-01-15T10:20:35;3.6027;64.3778
43414;DHT22;73638;49.676;8.606;2024-01-15T10:25:41;3.5813;64.5014
43414;DHT22;73638;49.676;8.606;2024-01-15T10:30:51;3.6507;64.2924
43414;DHT22;73638;49.676;8.606;2024-01-15T10:35:55;3.8056;64.8447
43414;DHT22;73638;49.676;8.606;2024-01-15T10:41:01;3.819;64.8203
43414;DHT22;73638;49.676;8.606;2024-01-15T10:46:07;3.9658;64.6723
43414;DHT22;73638;49.676;8.606;2024-01-15T10:51:14;4.118;64.3015
43414;DHT22;73638;49.676;8.606;2024-01-15T10:56:21;3.8457;64.1688
43414;DHT22;73638;49.676;8.606;2024-01-15T11:01:31;3.6934;63.2471
43414;DHT22;73638;49.676;8.606;2024-01-15T11:06:42;3.6374;63.4073
43414;DHT22;73638;49.676;8.606;2024-01-15T11:11:41;3.5466;63.8132
43414;DHT22;73638;49.676;8.606;2024-01-15T11:16:55;3.2395;63.6042
43414;DHT22;73638;49.676;8.606;2024-01-15T11:21:53;3.4558;64.1443
43414;DHT22;73638;49.676;8.606;2024-01-15T11:26:59;3.6641;64.6983
43414;DHT22;73638;49.676;8.606;2024-01-15T11:32:07;3.6988;63.8865
43414;DHT22;73638;49.676;8.606;2024-01-15T11:37:13;3.7896;63.8376
43414;DHT22;73638;49.676;8.606;2024-01-15T11:42:20;3.6294;63.7385
43414;DHT22;73638;49.676;8.606;2024-01-15T11:48:41;3.7762;63.8621
43414;DHT22;73638;49.676;8.606;2024-01-15T11:52:33;3.6988;63.4928
43414;DHT22;73638;49.676;8.606;2024-01-15T11:57:41;3.8537;63.7385
43414;DHT22;73638;49.676;8.606;2024-01-15T12:02:47;3.9792;63.1373
43414;DHT22;73638;49.676;8.606;2024-01-15T12:07:52;3.819;63.064
43414;DHT22;73638;49.676;8.606;2024-01-15T12:12:59;3.867;63.4318
43414;DHT22;73638;49.676;8.606;2024-01-15T12:18:08;4.2302;62.6795
43414;DHT22;73638;49.676;8.606;2024-01-15T12:23:14;4.1875;62.237
43414;DHT22;73638;49.676;8.606;2024-01-15T12:28:20;4.329;61.9913
43414;DHT22;73638;49.676;8.606;2024-01-15T15:42:09;3.1273;64.6113
43414;DHT22;73638;49.676;8.606;2024-01-15T15:47:16;3.5386;63.2471
43414;DHT22;73638;49.676;8.606;2024-01-15T15:52:22;3.7202;62.9282
43414;DHT22;73638;49.676;8.606;2024-01-15T15:57:29;3.7896;62.4247
43414;DHT22;73638;49.676;8.606;2024-01-15T16:02:36;3.7762;62.4979
43414;DHT22;73638;49.676;8.606;2024-01-15T16:07:42;3.6801;62.6215
43414;DHT22;73638;49.676;8.606;2024-01-15T16:12:49;4.0272;62.5971
43414;DHT22;73638;49.676;8.606;2024-01-15T16:24:02;4.062;62.2644
43414;DHT22;73638;49.676;8.606;2024-01-15T16:28:11;3.9364;61.5641
43414;DHT22;73638;49.676;8.606;2024-01-15T16:33:17;4.0566;61.9089
43414;DHT22;73638;49.676;8.606;2024-01-15T16:38:23;3.8884;61.355
43414;DHT22;73638;49.676;8.606;2024-01-15T16:43:30;3.9712;61.4298
43414;DHT22;73638;49.676;8.606;2024-01-15T16:48:36;3.8884;61.5274
43414;DHT22;73638;49.676;8.606;2024-01-15T16:53:43;3.9792;61.5641
43414;DHT22;73638;49.676;8.606;2024-01-15T16:58:49;3.9712;60.8759
43414;DHT22;73638;49.676;8.606;2024-01-15T17:03:56;3.9525;60.9628
43414;DHT22;73638;49.676;8.606;2024-01-15T17:09:02;3.9097;60.7416
43414;DHT22;73638;49.676;8.606;2024-01-15T17:14:09;3.7842;60.8026
43414;DHT22;73638;49.676;8.606;2024-01-15T17:19:15;3.8537;61.6373
43414;DHT22;73638;49.676;8.606;2024-01-15T17:24:22;3.9311;60.9995
43414;DHT22;73638;49.676;8.606;2024-01-15T17:29:28;3.9872;60.8392
43414;DHT22;73638;49.676;8.606;2024-01-15T17:34:35;3.9792;60.6912
43414;DHT22;73638;49.676;8.606;2024-01-15T17:39:42;3.9792;61.0239
43414;DHT22;73638;49.676;8.606;2024-01-15T17:44:48;4.1127;59.9145
43414;DHT22;73638;49.676;8.606;2024-01-15T17:49:55;4.0352;59.3774
43414;DHT22;73638;49.676;8.606;2024-01-15T17:55:02;4.0566;59.8321
43414;DHT22;73638;49.676;8.606;2024-01-15T18:00:09;4.1875;59.6445
43414;DHT22;73638;49.676;8.606;2024-01-15T18:05:15;3.9712;59.6841
43414;DHT22;73638;49.676;8.606;2024-01-15T18:10:21;4.1741;59.6323
43414;DHT22;73638;49.676;8.606;2024-01-15T18:15:27;3.9445;60.0031
43414;DHT22;73638;49.676;8.606;2024-01-15T18:20:34;3.9097;60.1389
43414;DHT22;73638;49.676;8.606;2024-01-15T18:25:40;3.8617;60.3113
43414;DHT22;73638;49.676;8.606;2024-01-15T18:30:52;4.0913;60.4959
43414;DHT22;73638;49.676;8.606;2024-01-15T18:35:54;4.1394;60.0259
43414;DHT22;73638;49.676;8.606;2024-01-15T18:41:03;4.3904;59.9649
43414;DHT22;73638;49.676;8.606;2024-01-15T18:46:07;4.1688;59.5834
43414;DHT22;73638;49.676;8.606;2024-01-15T18:51:19;4.2863;59.6567
43414;DHT22;73638;49.676;8.606;2024-01-15T18:56:20;4.3076;59.5834
43414;DHT22;73638;49.676;8.606;2024-01-15T19:01:27;4.0913;59.8444
43414;DHT22;73638;49.676;8.606;2024-01-15T19:06:32;4.4251;59.6201
43414;DHT22;73638;49.676;8.606;2024-01-15T19:11:39;4.2782;59.7803
43414;DHT22;73638;49.676;8.606;2024-01-15T19:16:46;4.4411;59.3378
43414;DHT22;73638;49.676;8.606;2024-01-15T19:21:52;4.1741;59.4614
43414;DHT22;73638;49.676;8.606;2024-01-15T19:26:59;4.0352;59.6231
43414;DHT22;73638;49.676;8.606;2024-01-15T19:32:05;3.9231;59.8444
43414;DHT22;73638;49.676;8.606;2024-01-15T19:37:11;4.0272;60.1877
43414;DHT22;73638;49.676;8.606;2024-01-15T19:42:18;3.9578;60.1877
43414;DHT22;73638;49.676;8.606;2024-01-15T19:47:25;3.9525;59.8688
43414;DHT22;73638;49.676;8.606;2024-01-15T19:52:31;3.6801;60.0778
43414;DHT22;73638;49.676;8.606;2024-01-15T19:52:33;3.6801;60.0778
43414;DHT22;73638;49.676;8.606;2024-01-15T19:57:39;3.6587;60.5936
43414;DHT22;73638;49.676;8.606;2024-01-15T19:57:41;3.6587;60.5936
43414;DHT22;73638;49.676;8.606;2024-01-15T20:02:48;3.6427;60.6912
43414;DHT22;73638;49.676;8.606;2024-01-15T20:07:54;3.616;60.7294
43414;DHT22;73638;49.676;8.606;2024-01-15T20:13:00;3.5119;60.766
43414;DHT22;73638;49.676;8.606;2024-01-15T20:18:07;3.3917;61.0483
43414;DHT22;73638;49.676;8.606;2024-01-15T20:23:13;3.3009;61.0483
43414;DHT22;73638;49.676;8.606;2024-01-15T20:28:20;3.2795;61.0239
43414;DHT22;73638;49.676;8.606;2024-01-15T20:33:26;3.0713;61.0483
43414;DHT22;73638;49.676;8.606;2024-01-15T20:38:32;2.6734;61.5534
43414;DHT22;73638;49.676;8.606;2024-01-15T20:43:39;2.7562;61.5885
43414;DHT22;73638;49.676;8.606;2024-01-15T20:48:45;2.7855;61.651
43414;DHT22;73638;49.676;8.606;2024-01-15T20:53:51;2.604;62.0569
43414;DHT22;73638;49.676;8.606;2024-01-15T20:58:58;2.5265;62.0691
43414;DHT22;73638;49.676;8.606;2024-01-15T21:04:04;2.66;62.1057
43414;DHT22;73638;49.676;8.606;2024-01-15T21:09:11;2.5479;61.9959
43414;DHT22;73638;49.676;8.606;2024-01-15T21:14:17;2.4063;62.5483
43414;DHT22;73638;49.676;8.606;2024-01-15T21:19:24;2.3716;62.3148
43414;DHT22;73638;49.676;8.606;2024-01-15T21:24:30;2.3583;62.3514
43414;DHT22;73638;49.676;8.606;2024-01-15T21:29:37;2.2541;61.8601
43414;DHT22;73638;49.676;8.606;2024-01-15T21:34:43;2.2328;62.8306
43414;DHT22;73638;49.676;8.606;2024-01-15T21:39:49;2.4491;62.6215
43414;DHT22;73638;49.676;8.606;2024-01-15T21:44:56;2.3022;62.8306
43414;DHT22;73638;49.676;8.606;2024-01-15T21:50:03;2.4918;62.8306
43414;DHT22;73638;49.676;8.606;2024-01-15T21:55:09;2.5879;62.6215
43414;DHT22;73638;49.676;8.606;2024-01-15T22:00:16;2.5746;62.5605
43414;DHT22;73638;49.676;8.606;2024-01-15T22:05:22;2.652;62.6337
43414;DHT22;73638;49.676;8.606;2024-01-15T22:10:28;2.66;62.7207
43414;DHT22;73638;49.676;8.606;2024-01-15T22:15:34;2.5265;62.0691
43414;DHT22;73638;49.676;8.606;2024-01-15T22:20:41;2.1767;61.9699
43414;DHT22;73638;49.676;8.606;2024-01-15T22:25:47;2.1206;62.1546
43414;DHT22;73638;49.676;8.606;2024-01-15T22:30:53;2.1901;62.5727
43414;DHT22;73638;49.676;8.606;2024-01-15T22:36:00;1.899;62.5605
43414;DHT22;73638;49.676;8.606;2024-01-15T22:41:06;1.8696;62.3514
43414;DHT22;73638;49.676;8.606;2024-01-15T22:46:13;1.8563;63.0884
43414;DHT22;73638;49.676;8.606;2024-01-15T22:46:15;1.8563;63.0884
43414;DHT22;73638;49.676;8.606;2024-01-15T22:51:20;2.0512;63.4089
43414;DHT22;73638;49.676;8.606;2024-01-15T22:56:27;2.3663;63.3967
43414;DHT22;73638;49.676;8.606;2024-01-15T23:01:34;2.5612;63.2242
43414;DHT22;73638;49.676;8.606;2024-01-15T23:06:40;2.6734;63.2731
43414;DHT22;73638;49.676;8.606;2024-01-15T23:11:47;2.8416;62.5589
43414;DHT22;73638;49.676;8.606;2024-01-15T23:16:53;2.8336;62.5223
43414;DHT22;73638;49.676;8.606;2024-01-15T23:22:00;2.9244;62.5101
43414;DHT22;73638;49.676;8.606;2024-01-15T23:27:06;2.7855;62.7314
43414;DHT22;73638;49.676;8.606;2024-01-15T23:32:12;2.8603;62.9038
43414;DHT22;73638;49.676;8.606;2024-01-15T23:37:19;2.66;62.5971
43414;DHT22;73638;49.676;8.606;2024-01-15T23:42:26;2.3449;61.9333
43414;DHT22;73638;49.676;8.606;2024-01-15T23:47:31;2.0031;62.118
43414;DHT22;73638;49.676;8.606;2024-01-15T23:52:38;1.8269;62.2538
43414;DHT22;73638;49.676;8.606;2024-01-15T23:57:44;1.5759;62.2415
